createdAt,value
2022-07-28T00:00:38.072Z,17.20
2022-07-28T00:03:07.308Z,15.98
2022-07-28T00:05:37.068Z,15.82
2022-07-28T00:08:11.440Z,16.02
2022-07-28T00:10:40.853Z,16.05
2022-07-28T00:13:10.174Z,18.55
2022-07-28T00:15:39.602Z,18.23
2022-07-28T00:18:09.246Z,17.50
2022-07-28T00:20:38.620Z,17.85
2022-07-28T00:23:08.055Z,16.85
2022-07-28T00:25:37.387Z,15.52
2022-07-28T00:28:06.980Z,16.40
2022-07-28T00:30:36.456Z,15.05
2022-07-28T00:33:06.125Z,14.98
2022-07-28T00:35:35.622Z,14.20
2022-07-28T00:38:04.973Z,15.35
2022-07-28T00:40:53.849Z,12.73
2022-07-28T00:43:23.207Z,12.98
2022-07-28T00:45:52.571Z,12.48
2022-07-28T00:48:21.970Z,13.35
2022-07-28T00:50:51.396Z,13.45
2022-07-28T00:53:20.996Z,11.88
2022-07-28T00:56:03.469Z,12.88
2022-07-28T00:58:36.518Z,12.75
2022-07-28T01:01:10.090Z,13.25
2022-07-28T01:03:43.309Z,13.35
2022-07-28T01:06:38.117Z,13.55
2022-07-28T01:09:34.745Z,11.57
2022-07-28T01:12:34.581Z,11.70
2022-07-28T01:15:09.802Z,12.15
2022-07-28T01:17:52.827Z,15.13
2022-07-28T01:20:42.004Z,12.18
2022-07-28T01:23:14.065Z,11.30
2022-07-28T01:26:10.292Z,10.90
2022-07-28T01:29:12.340Z,11.40
2022-07-28T01:31:49.947Z,9.85
2022-07-28T01:34:31.357Z,9.13
2022-07-28T01:37:22.166Z,10.20
2022-07-28T01:39:54.444Z,10.38
2022-07-28T01:42:28.044Z,9.30
2022-07-28T01:44:59.196Z,10.07
2022-07-28T01:47:33.716Z,9.00
2022-07-28T01:50:06.534Z,9.18
2022-07-28T01:52:38.851Z,9.02
2022-07-28T01:55:09.554Z,8.80
2022-07-28T01:57:39.406Z,11.55
2022-07-28T02:00:11.780Z,12.45
2022-07-28T02:02:43.827Z,11.43
2022-07-28T02:05:17.179Z,9.63
2022-07-28T02:07:52.903Z,8.57
2022-07-28T02:10:23.578Z,8.05
2022-07-28T02:12:54.414Z,8.07
2022-07-28T02:15:25.796Z,7.20
2022-07-28T02:17:56.219Z,9.43
2022-07-28T02:20:26.482Z,7.40
2022-07-28T02:22:56.510Z,6.18
2022-07-28T02:25:26.060Z,7.43
2022-07-28T02:28:03.647Z,6.82
2022-07-28T02:30:38.989Z,6.88
2022-07-28T02:33:23.319Z,6.65
2022-07-28T02:36:27.439Z,6.75
2022-07-28T02:39:04.918Z,6.13
2022-07-28T02:41:39.774Z,6.38
2022-07-28T02:44:17.807Z,6.55
2022-07-28T02:46:50.681Z,7.30
2022-07-28T02:49:26.158Z,7.15
2022-07-28T02:51:56.800Z,6.93
2022-07-28T02:54:28.338Z,7.43
2022-07-28T02:56:59.993Z,7.78
2022-07-28T02:59:30.863Z,8.23
2022-07-28T03:02:01.134Z,7.18
2022-07-28T03:04:49.185Z,8.00
2022-07-28T03:07:18.638Z,11.13
2022-07-28T03:09:48.960Z,9.70
2022-07-28T03:12:18.133Z,10.30
2022-07-28T03:14:47.241Z,9.00
2022-07-28T03:17:16.467Z,7.43
2022-07-28T03:19:45.783Z,8.45
2022-07-28T03:22:15.007Z,7.38
2022-07-28T03:24:52.073Z,7.50
2022-07-28T03:27:38.311Z,6.85
2022-07-28T03:30:30.687Z,6.35
2022-07-28T03:33:04.593Z,6.07
2022-07-28T03:35:34.648Z,6.47
2022-07-28T03:38:20.398Z,10.70
2022-07-28T03:40:50.894Z,8.68
2022-07-28T03:43:23.441Z,13.18
2022-07-28T03:45:53.122Z,9.18
2022-07-28T03:48:27.208Z,6.28
2022-07-28T03:50:56.374Z,6.63
2022-07-28T03:53:29.301Z,7.70
2022-07-28T03:55:59.708Z,9.65
2022-07-28T03:58:30.077Z,9.00
2022-07-28T04:01:00.190Z,9.05
2022-07-28T04:03:43.228Z,9.30
2022-07-28T04:06:16.782Z,6.63
2022-07-28T04:08:47.661Z,6.40
2022-07-28T04:11:17.063Z,6.50
2022-07-28T04:13:46.527Z,6.13
2022-07-28T04:16:15.912Z,5.95
2022-07-28T04:18:45.405Z,6.15
2022-07-28T04:21:15.377Z,5.40
2022-07-28T04:23:44.764Z,5.40
2022-07-28T04:26:14.680Z,5.70
2022-07-28T04:28:44.009Z,5.85
2022-07-28T04:31:13.893Z,5.50
2022-07-28T04:33:44.339Z,6.93
2022-07-28T04:36:13.872Z,6.03
2022-07-28T04:38:43.388Z,5.70
2022-07-28T04:41:12.753Z,6.28
2022-07-28T04:43:42.362Z,5.80
2022-07-28T04:46:14.945Z,6.35
2022-07-28T04:48:46.473Z,6.28
2022-07-28T04:51:16.012Z,5.63
2022-07-28T04:53:45.488Z,5.93
2022-07-28T04:56:14.966Z,6.30
2022-07-28T04:58:44.420Z,7.03
2022-07-28T05:01:15.841Z,6.22
2022-07-28T05:03:45.242Z,5.85
2022-07-28T05:06:14.683Z,5.53
2022-07-28T05:08:43.976Z,6.90
2022-07-28T05:11:13.318Z,6.13
2022-07-28T05:13:42.657Z,6.22
2022-07-28T05:16:12.207Z,5.40
2022-07-28T05:18:41.580Z,4.60
2022-07-28T05:21:11.056Z,7.13
2022-07-28T05:23:43.178Z,4.65
2022-07-28T05:26:16.516Z,4.35
2022-07-28T05:28:46.003Z,3.97
2022-07-28T05:31:15.784Z,4.22
2022-07-28T05:33:45.185Z,4.32
2022-07-28T05:36:14.995Z,6.40
2022-07-28T05:38:44.321Z,4.50
2022-07-28T05:41:13.660Z,4.65
2022-07-28T05:43:43.098Z,4.35
2022-07-28T05:46:12.587Z,4.07
2022-07-28T05:48:42.080Z,3.97
2022-07-28T05:51:11.489Z,3.70
2022-07-28T05:53:40.838Z,3.83
2022-07-28T05:56:10.241Z,4.45
2022-07-28T05:58:39.677Z,3.83
2022-07-28T06:01:09.153Z,4.78
2022-07-28T06:03:42.056Z,4.00
2022-07-28T06:06:14.674Z,4.50
2022-07-28T06:11:22.275Z,4.15
2022-07-28T06:13:53.158Z,3.72
2022-07-28T06:16:23.946Z,3.90
2022-07-28T06:18:53.687Z,3.88
2022-07-28T06:21:25.514Z,3.95
2022-07-28T06:23:54.625Z,4.65
2022-07-28T06:26:23.982Z,3.90
2022-07-28T06:28:53.323Z,4.13
2022-07-28T06:31:22.471Z,3.90
2022-07-28T06:33:51.927Z,4.80
2022-07-28T06:36:21.192Z,4.60
2022-07-28T06:38:50.769Z,5.82
2022-07-28T06:41:19.978Z,4.30
2022-07-28T06:43:49.255Z,4.70
2022-07-28T06:46:20.554Z,4.72
2022-07-28T06:48:50.016Z,5.43
2022-07-28T06:51:20.972Z,5.10
2022-07-28T06:53:50.208Z,4.18
2022-07-28T06:56:21.479Z,4.07
2022-07-28T06:58:50.854Z,3.78
2022-07-28T07:01:20.176Z,4.18
2022-07-28T07:03:49.455Z,4.68
2022-07-28T07:06:18.615Z,4.07
2022-07-28T07:08:48.959Z,4.30
2022-07-28T07:11:18.351Z,3.88
2022-07-28T07:13:47.686Z,4.25
2022-07-28T07:16:17.109Z,5.00
2022-07-28T07:18:46.651Z,4.40
2022-07-28T07:21:16.203Z,4.30
2022-07-28T07:23:45.598Z,4.32
2022-07-28T07:26:14.945Z,4.30
2022-07-28T07:28:44.341Z,4.18
2022-07-28T07:31:13.842Z,4.00
2022-07-28T07:33:43.280Z,3.92
2022-07-28T07:36:12.790Z,4.88
2022-07-28T07:38:42.278Z,4.80
2022-07-28T07:41:11.638Z,4.20
2022-07-28T07:43:45.795Z,4.30
2022-07-28T07:46:17.658Z,4.53
2022-07-28T07:48:47.248Z,3.80
2022-07-28T07:51:16.898Z,4.10
2022-07-28T07:53:46.190Z,4.00
2022-07-28T07:56:16.997Z,3.92
2022-07-28T07:58:46.510Z,3.55
2022-07-28T08:01:16.057Z,4.05
2022-07-28T08:03:45.902Z,3.90
2022-07-28T08:06:26.279Z,4.10
2022-07-28T08:08:57.063Z,4.05
2022-07-28T08:11:26.445Z,4.22
2022-07-28T08:13:55.778Z,4.95
2022-07-28T08:16:25.108Z,4.00
2022-07-28T08:18:54.893Z,3.97
2022-07-28T08:21:24.230Z,3.92
2022-07-28T08:23:56.859Z,3.78
2022-07-28T08:26:26.705Z,3.95
2022-07-28T08:28:56.128Z,4.00
2022-07-28T08:31:25.648Z,3.78
2022-07-28T08:33:55.277Z,4.05
2022-07-28T08:36:24.902Z,4.88
2022-07-28T08:38:54.267Z,4.22
2022-07-28T08:41:33.843Z,3.65
2022-07-28T08:44:05.252Z,3.80
2022-07-28T08:47:12.610Z,3.78
2022-07-28T08:49:43.977Z,3.78
2022-07-28T08:52:15.395Z,3.58
2022-07-28T08:54:47.614Z,3.90
2022-07-28T08:57:24.176Z,4.43
2022-07-28T08:59:53.744Z,4.15
2022-07-28T09:02:23.890Z,4.65
2022-07-28T09:04:53.351Z,4.50
2022-07-28T09:07:23.172Z,4.63
2022-07-28T09:09:52.668Z,4.78
2022-07-28T09:12:27.501Z,4.40
2022-07-28T09:14:56.874Z,3.90
2022-07-28T09:17:25.887Z,4.55
2022-07-28T09:19:54.862Z,4.00
2022-07-28T09:22:23.912Z,3.83
2022-07-28T09:24:52.874Z,3.83
2022-07-28T09:27:21.942Z,3.78
2022-07-28T09:30:00.734Z,3.55
2022-07-28T09:32:29.785Z,3.53
2022-07-28T09:34:59.087Z,4.13
2022-07-28T09:37:29.244Z,4.20
2022-07-28T09:40:11.082Z,3.85
2022-07-28T09:42:56.512Z,4.40
2022-07-28T09:45:30.081Z,3.90
2022-07-28T09:48:19.477Z,4.25
2022-07-28T09:50:48.704Z,4.43
2022-07-28T09:53:28.534Z,4.18
2022-07-28T09:56:02.940Z,3.88
2022-07-28T09:58:32.879Z,4.45
2022-07-28T10:01:22.010Z,4.35
2022-07-28T10:04:02.851Z,5.47
2022-07-28T10:06:38.896Z,4.43
2022-07-28T10:09:15.454Z,4.20
2022-07-28T10:11:45.147Z,4.07
2022-07-28T10:14:15.291Z,4.50
2022-07-28T10:16:54.438Z,3.70
2022-07-28T10:19:25.726Z,4.65
2022-07-28T10:21:56.438Z,3.80
2022-07-28T10:24:29.343Z,4.03
2022-07-28T10:27:00.954Z,3.92
2022-07-28T10:29:32.668Z,3.78
2022-07-28T10:32:07.895Z,3.72
2022-07-28T10:34:44.655Z,4.03
2022-07-28T10:37:21.898Z,3.75
2022-07-28T10:40:00.733Z,3.80
2022-07-28T10:42:31.682Z,3.65
2022-07-28T10:45:01.581Z,4.05
2022-07-28T10:47:35.738Z,3.60
2022-07-28T10:50:06.516Z,4.10
2022-07-28T10:52:55.975Z,3.67
2022-07-28T10:55:47.042Z,3.75
2022-07-28T10:58:30.424Z,3.70
2022-07-28T11:01:05.532Z,4.00
2022-07-28T11:03:45.230Z,3.65
2022-07-28T11:06:31.247Z,4.15
2022-07-28T11:09:19.556Z,3.70
2022-07-28T11:11:51.803Z,3.92
2022-07-28T11:14:37.501Z,3.92
2022-07-28T11:17:10.874Z,3.72
2022-07-28T11:22:35.566Z,4.28
2022-07-28T11:25:18.732Z,4.40
2022-07-28T11:27:55.315Z,4.15
2022-07-28T11:30:30.468Z,3.97
2022-07-28T11:33:00.484Z,4.28
2022-07-28T11:35:54.249Z,4.43
2022-07-28T11:38:24.354Z,4.45
2022-07-28T11:40:57.143Z,4.35
2022-07-28T11:43:36.032Z,4.93
2022-07-28T11:46:09.554Z,4.28
2022-07-28T11:48:41.895Z,6.20
2022-07-28T11:51:13.340Z,8.73
2022-07-28T11:53:46.977Z,4.72
2022-07-28T11:56:27.404Z,4.60
2022-07-28T11:59:12.121Z,5.07
2022-07-28T12:01:54.321Z,5.65
2022-07-28T12:04:28.667Z,5.38
2022-07-28T12:06:58.240Z,10.50
2022-07-28T12:09:42.489Z,11.05
2022-07-28T12:12:11.947Z,7.95
2022-07-28T12:14:42.035Z,5.95
2022-07-28T12:17:12.364Z,6.57
2022-07-28T12:19:41.826Z,5.93
2022-07-28T12:22:15.851Z,7.07
2022-07-28T12:24:46.233Z,6.95
2022-07-28T12:27:16.587Z,7.15
2022-07-28T12:29:57.016Z,8.45
2022-07-28T12:32:38.624Z,8.63
2022-07-28T12:35:08.278Z,8.85
2022-07-28T12:37:37.481Z,8.70
2022-07-28T12:40:10.012Z,8.32
2022-07-28T12:42:39.193Z,8.18
2022-07-28T12:45:11.234Z,9.75
2022-07-28T12:47:40.673Z,19.60
2022-07-28T12:50:16.995Z,22.38
2022-07-28T12:53:03.245Z,19.30
2022-07-28T12:55:33.399Z,11.85
2022-07-28T12:58:02.828Z,9.48
2022-07-28T13:00:35.372Z,8.60
2022-07-28T13:06:06.590Z,7.90
2022-07-28T13:08:48.934Z,6.93
2022-07-28T13:14:08.271Z,5.53
2022-07-28T13:16:39.137Z,6.20
2022-07-28T13:19:08.609Z,7.85
2022-07-28T13:21:58.852Z,8.73
2022-07-28T13:24:31.042Z,8.25
2022-07-28T13:27:00.860Z,8.85
2022-07-28T13:29:30.591Z,8.70
2022-07-28T13:32:00.041Z,9.27
2022-07-28T13:34:29.457Z,7.32
2022-07-28T13:36:58.805Z,8.30
2022-07-28T13:39:28.713Z,7.95
2022-07-28T13:41:59.240Z,7.45
2022-07-28T13:44:32.784Z,6.47
2022-07-28T13:47:03.461Z,7.35
2022-07-28T13:49:38.817Z,7.88
2022-07-28T13:52:13.250Z,11.40
2022-07-28T13:54:42.930Z,7.80
2022-07-28T13:57:13.403Z,7.68
2022-07-28T13:59:44.262Z,8.15
2022-07-28T14:02:15.460Z,8.32
2022-07-28T14:04:50.112Z,7.63
2022-07-28T14:07:21.605Z,9.57
2022-07-28T14:09:52.441Z,9.88
2022-07-28T14:12:21.837Z,7.65
2022-07-28T14:14:51.379Z,7.30
2022-07-28T14:17:43.320Z,7.88
2022-07-28T14:20:14.860Z,8.15
2022-07-28T14:22:46.289Z,7.63
2022-07-28T14:25:20.952Z,7.28
2022-07-28T14:27:52.163Z,8.50
2022-07-28T14:30:22.553Z,9.13
2022-07-28T14:32:51.999Z,9.20
2022-07-28T14:35:21.722Z,8.10
2022-07-28T14:40:42.734Z,10.32
2022-07-28T14:43:14.048Z,12.48
2022-07-28T14:46:12.541Z,11.75
2022-07-28T14:48:33.805Z,10.18
2022-07-28T14:51:03.185Z,10.52
2022-07-28T14:53:35.057Z,9.43
2022-07-28T14:56:06.842Z,10.60
2022-07-28T14:58:40.629Z,9.25
2022-07-28T15:01:09.977Z,9.07
2022-07-28T15:03:43.375Z,8.57
2022-07-28T15:06:13.087Z,8.90
2022-07-28T15:08:42.203Z,8.35
2022-07-28T15:11:11.865Z,8.45
2022-07-28T15:13:41.128Z,8.80
2022-07-28T15:16:10.424Z,8.90
2022-07-28T15:18:39.741Z,9.20
2022-07-28T15:21:13.695Z,8.63
2022-07-28T15:23:43.123Z,9.07
2022-07-28T15:26:12.238Z,8.35
2022-07-28T15:28:42.003Z,9.05
2022-07-28T15:31:11.314Z,9.60
2022-07-28T15:33:47.797Z,8.98
2022-07-28T15:36:17.835Z,8.30
2022-07-28T15:38:48.929Z,8.75
2022-07-28T15:41:20.745Z,7.57
2022-07-28T15:43:49.929Z,8.80
2022-07-28T15:46:19.521Z,8.02
2022-07-28T15:48:48.948Z,8.63
2022-07-28T15:51:22.616Z,9.52
2022-07-28T15:53:57.285Z,9.43
2022-07-28T15:56:27.688Z,9.38
2022-07-28T15:58:58.766Z,8.23
2022-07-28T16:01:28.537Z,10.02
2022-07-28T16:03:59.257Z,8.50
2022-07-28T16:06:49.225Z,7.50
2022-07-28T16:09:18.739Z,8.07
2022-07-28T16:11:48.520Z,8.00
2022-07-28T16:14:20.026Z,7.75
2022-07-28T16:16:49.417Z,9.00
2022-07-28T16:19:38.564Z,8.27
2022-07-28T16:22:08.077Z,9.68
2022-07-28T16:24:37.436Z,9.35
2022-07-28T16:27:06.784Z,8.70
2022-07-28T16:29:38.615Z,8.32
2022-07-28T16:32:08.185Z,8.23
2022-07-28T16:34:37.509Z,7.70
2022-07-28T16:37:06.891Z,7.80
2022-07-28T16:39:37.076Z,8.23
2022-07-28T16:42:06.723Z,8.93
2022-07-28T16:44:38.696Z,7.72
2022-07-28T16:47:08.062Z,7.70
2022-07-28T16:49:42.110Z,8.63
2022-07-28T16:52:14.860Z,6.57
2022-07-28T16:54:44.229Z,7.10
2022-07-28T16:57:15.049Z,6.95
2022-07-28T16:59:48.564Z,6.97
2022-07-28T17:02:20.354Z,6.35
2022-07-28T17:04:49.771Z,6.05
2022-07-28T17:07:19.582Z,7.03
2022-07-28T17:09:48.677Z,7.20
2022-07-28T17:12:17.974Z,7.63
2022-07-28T17:14:47.099Z,7.90
2022-07-28T17:17:16.415Z,7.45
2022-07-28T17:19:47.137Z,6.93
2022-07-28T17:22:17.138Z,7.22
2022-07-28T17:24:47.282Z,7.47
2022-07-28T17:30:06.696Z,7.45
2022-07-28T17:32:35.812Z,7.50
2022-07-28T17:35:05.213Z,7.30
2022-07-28T17:37:34.338Z,7.85
2022-07-28T17:40:04.683Z,7.50
2022-07-28T17:42:35.427Z,7.90
2022-07-28T17:45:04.728Z,7.57
2022-07-28T17:47:35.820Z,7.32
2022-07-28T17:50:08.365Z,7.72
2022-07-28T17:52:37.743Z,7.07
2022-07-28T17:55:25.027Z,7.80
2022-07-28T17:57:56.973Z,7.45
2022-07-28T18:00:26.328Z,7.03
2022-07-28T18:02:55.511Z,7.28
2022-07-28T18:05:24.592Z,7.32
2022-07-28T18:07:59.059Z,7.20
2022-07-28T18:10:28.858Z,7.22
2022-07-28T18:12:58.188Z,8.25
2022-07-28T18:15:28.883Z,8.00
2022-07-28T18:18:01.014Z,7.75
2022-07-28T18:20:31.227Z,8.68
2022-07-28T18:23:00.785Z,8.32
2022-07-28T18:25:30.601Z,8.38
2022-07-28T18:28:00.239Z,9.02
2022-07-28T18:30:30.350Z,8.57
2022-07-28T18:32:59.980Z,8.35
2022-07-28T18:35:29.816Z,9.30
2022-07-28T18:37:59.462Z,8.82
2022-07-28T18:40:30.036Z,8.95
2022-07-28T18:42:59.987Z,8.43
2022-07-28T18:45:29.456Z,9.13
2022-07-28T18:48:00.761Z,8.75
2022-07-28T18:50:31.223Z,8.68
2022-07-28T18:53:01.399Z,10.00
2022-07-28T18:55:31.212Z,9.65
2022-07-28T18:58:00.609Z,9.85
2022-07-28T19:00:29.994Z,8.68
2022-07-28T19:02:59.433Z,9.27
2022-07-28T19:05:36.836Z,9.40
2022-07-28T19:08:07.395Z,8.75
2022-07-28T19:10:36.702Z,9.35
2022-07-28T19:13:12.325Z,8.23
2022-07-28T19:15:43.528Z,8.43
2022-07-28T19:18:12.933Z,8.75
2022-07-28T19:20:43.588Z,9.15
2022-07-28T19:23:13.035Z,8.25
2022-07-28T19:25:42.484Z,8.68
2022-07-28T19:28:12.786Z,8.15
2022-07-28T19:30:42.144Z,9.20
2022-07-28T19:33:17.242Z,8.88
2022-07-28T19:35:48.314Z,8.93
2022-07-28T19:38:18.641Z,9.43
2022-07-28T19:40:48.036Z,8.48
2022-07-28T19:43:17.399Z,8.50
2022-07-28T19:45:46.832Z,9.80
2022-07-28T19:48:16.201Z,8.82
2022-07-28T19:50:51.133Z,8.15
2022-07-28T19:53:25.053Z,9.20
2022-07-28T19:55:54.805Z,9.45
2022-07-28T19:58:24.583Z,8.75
2022-07-28T20:00:56.381Z,8.73
2022-07-28T20:04:00.930Z,9.48
2022-07-28T20:06:15.435Z,9.23
2022-07-28T20:08:44.549Z,8.90
2022-07-28T20:11:14.840Z,8.98
2022-07-28T20:13:44.475Z,9.57
2022-07-28T20:16:13.766Z,9.15
2022-07-28T20:18:43.331Z,9.60
2022-07-28T20:21:12.472Z,8.02
2022-07-28T20:23:42.129Z,8.38
2022-07-28T20:26:11.255Z,9.43
2022-07-28T20:28:40.497Z,9.45
2022-07-28T20:31:12.416Z,8.82
2022-07-28T20:33:45.530Z,8.73
2022-07-28T20:36:15.041Z,8.80
2022-07-28T20:38:46.254Z,9.27
2022-07-28T20:41:15.460Z,9.15
2022-07-28T20:43:44.556Z,9.43
2022-07-28T20:46:13.789Z,9.85
2022-07-28T20:48:43.126Z,9.88
2022-07-28T20:51:12.325Z,9.32
2022-07-28T20:53:41.422Z,10.02
2022-07-28T20:56:10.594Z,10.38
2022-07-28T20:58:39.957Z,10.88
2022-07-28T21:01:09.421Z,10.77
2022-07-28T21:03:38.557Z,10.13
2022-07-28T21:06:13.244Z,9.05
2022-07-28T21:08:43.408Z,9.77
2022-07-28T21:11:12.868Z,9.50
2022-07-28T21:13:41.971Z,10.35
2022-07-28T21:16:11.143Z,9.65
2022-07-28T21:18:41.489Z,9.27
2022-07-28T21:21:10.674Z,10.32
2022-07-28T21:23:39.798Z,9.82
2022-07-28T21:26:12.891Z,9.90
2022-07-28T21:29:00.364Z,9.97
2022-07-28T21:31:29.510Z,9.80
2022-07-28T21:33:58.613Z,10.80
2022-07-28T21:36:27.745Z,10.95
2022-07-28T21:38:57.000Z,9.63
2022-07-28T21:41:36.328Z,11.57
2022-07-28T21:44:06.407Z,9.80
2022-07-28T21:46:35.532Z,10.40
2022-07-28T21:49:04.762Z,9.70
2022-07-28T21:51:33.937Z,11.80
2022-07-28T21:54:03.106Z,10.38
2022-07-28T21:56:35.417Z,9.68
2022-07-28T21:59:05.572Z,10.82
2022-07-28T22:01:34.923Z,10.48
2022-07-28T22:04:04.710Z,11.73
2022-07-28T22:06:33.902Z,10.23
2022-07-28T22:09:03.237Z,10.60
2022-07-28T22:11:32.555Z,12.05
2022-07-28T22:14:02.688Z,11.15
2022-07-28T22:16:32.159Z,10.73
2022-07-28T22:19:01.591Z,10.32
2022-07-28T22:21:31.059Z,10.45
2022-07-28T22:24:00.464Z,10.95
2022-07-28T22:26:29.790Z,11.50
2022-07-28T22:28:59.097Z,10.70
2022-07-28T22:31:28.440Z,10.55
2022-07-28T22:33:58.894Z,11.43
2022-07-28T22:36:28.273Z,10.68
2022-07-28T22:38:57.647Z,11.20
2022-07-28T22:41:27.051Z,10.40
2022-07-28T22:43:56.440Z,10.52
2022-07-28T22:46:25.946Z,10.57
2022-07-28T22:48:55.464Z,11.27
2022-07-28T22:51:24.817Z,12.23
2022-07-28T22:53:54.395Z,13.85
2022-07-28T22:56:37.741Z,13.43
2022-07-28T22:59:08.654Z,13.37
2022-07-28T23:01:38.506Z,12.93
2022-07-28T23:04:07.992Z,13.38
2022-07-28T23:06:37.776Z,13.82
2022-07-28T23:09:07.192Z,14.57
2022-07-28T23:11:36.625Z,15.15
2022-07-28T23:14:06.233Z,13.05
2022-07-28T23:16:35.698Z,12.32
2022-07-28T23:19:05.210Z,11.75
2022-07-28T23:21:37.588Z,10.95
2022-07-28T23:24:08.010Z,12.95
2022-07-28T23:26:37.421Z,11.85
2022-07-28T23:29:06.952Z,11.93
2022-07-28T23:31:36.619Z,12.70
2022-07-28T23:34:05.974Z,13.55
2022-07-28T23:36:36.685Z,12.00
2022-07-28T23:39:06.381Z,12.43
2022-07-28T23:41:35.718Z,13.05
2022-07-28T23:44:05.213Z,12.13
2022-07-28T23:46:34.692Z,22.42
2022-07-28T23:49:04.183Z,25.05
2022-07-28T23:51:47.665Z,24.42
2022-07-28T23:54:18.596Z,20.15
2022-07-28T23:56:48.395Z,13.52
2022-07-28T23:59:17.859Z,12.60
